aviador You're here:

KMQY Decoded Metar

SMYRNA in TN, USA
Report Time2017-11-23 13:56:00
UTC Time2017-11-23 14:56:04
Flight Rules vfr VFR
WindCalm
Visibility9999 m
Phenomena:N/A
Clouds:N/A
Expected CloudBase > 1,200 ft AGL from Temp-Dew spread
CeilingNone
Temp02°C (ISA -12)
Dew Point-1°C (81% RH)
AAT-0.1°C
QNH1022 hPa
Density Alt-1,129 ft
Elevation545 ft
Report Wrong Elevation
Raw Report
METAR KMQY 231356Z 00000KT 10SM CLR 02/M01 A3019 RMK AO2 SLP223 T00221011=

Extra information for KMQY:More info

Metar Taf Metar & Taf Last 4 Metars F.Rules Stats Wind Profile Meteogram Temp Stats Airport Information Weather charts Add Link Nearby VenuesMetar ALERT Operation Metar Decoded Social comments

AIRNAV info for KMQY